sensor_id;sensor_type;location;lat;lon;timestamp;noise_LAeq;noise_LA_min;noise_LA_max;noise_LA01;noise_LA95
74470;Laerm;62918;55.706;37.816;2023-02-01T00:00:28;55.18;47.17;59.73;;
74470;Laerm;62918;55.706;37.816;2023-02-01T00:00:59;58.24;46.55;68.25;;
74470;Laerm;62918;55.706;37.816;2023-02-01T00:01:30;64.22;46.38;71.72;;
74470;Laerm;62918;55.706;37.816;2023-02-01T00:02:01;56.73;48.23;68.32;;
74470;Laerm;62918;55.706;37.816;2023-02-01T00:02:32;59.68;49.65;74.17;;
74470;Laerm;62918;55.706;37.816;2023-02-01T00:03:02;60.76;52.12;65.41;;
74470;Laerm;62918;55.706;37.816;2023-02-01T00:03:33;51.63;45.05;57.56;;
74470;Laerm;62918;55.706;37.816;2023-02-01T00:04:04;47.77;44.78;53.33;;
74470;Laerm;62918;55.706;37.816;2023-02-01T00:04:34;48.22;44.38;52.71;;
74470;Laerm;62918;55.706;37.816;2023-02-01T00:05:06;50.11;45.29;54.34;;
74470;Laerm;62918;55.706;37.816;2023-02-01T00:05:37;58.33;45.88;66.91;;
74470;Laerm;62918;55.706;37.816;2023-02-01T00:06:08;59.07;45.54;67.74;;
74470;Laerm;62918;55.706;37.816;2023-02-01T00:06:38;50.87;44.09;56.66;;
74470;Laerm;62918;55.706;37.816;2023-02-01T00:07:09;59.82;45.51;70.32;;
74470;Laerm;62918;55.706;37.816;2023-02-01T00:07:39;60.51;46.96;66.40;;
74470;Laerm;62918;55.706;37.816;2023-02-01T00:08:10;57.20;51.41;62.18;;
74470;Laerm;62918;55.706;37.816;2023-02-01T00:08:40;56.71;49.98;63.92;;
74470;Laerm;62918;55.706;37.816;2023-02-01T00:09:11;56.24;47.74;65.51;;
74470;Laerm;62918;55.706;37.816;2023-02-01T00:09:41;59.42;48.27;76.85;;
74470;Laerm;62918;55.706;37.816;2023-02-01T00:10:12;56.06;49.83;62.30;;
74470;Laerm;62918;55.706;37.816;2023-02-01T00:10:43;55.80;47.95;61.91;;
74470;Laerm;62918;55.706;37.816;2023-02-01T00:11:13;63.32;47.27;68.04;;
74470;Laerm;62918;55.706;37.816;2023-02-01T00:11:44;57.06;44.80;67.48;;
74470;Laerm;62918;55.706;37.816;2023-02-01T00:12:15;58.53;46.29;65.01;;
74470;Laerm;62918;55.706;37.816;2023-02-01T00:12:45;55.17;46.39;62.67;;
74470;Laerm;62918;55.706;37.816;2023-02-01T00:13:16;53.94;46.99;62.52;;
74470;Laerm;62918;55.706;37.816;2023-02-01T00:13:47;59.85;51.82;65.94;;
74470;Laerm;62918;55.706;37.816;2023-02-01T00:14:17;60.37;52.75;65.24;;
74470;Laerm;62918;55.706;37.816;2023-02-01T00:14:48;53.46;45.01;67.17;;
74470;Laerm;62918;55.706;37.816;2023-02-01T00:15:18;55.45;45.74;62.33;;
74470;Laerm;62918;55.706;37.816;2023-02-01T00:15:49;56.52;45.91;63.78;;
74470;Laerm;62918;55.706;37.816;2023-02-01T00:16:25;48.63;44.89;54.14;;
74470;Laerm;62918;55.706;37.816;2023-02-01T00:16:56;49.12;44.54;54.06;;
74470;Laerm;62918;55.706;37.816;2023-02-01T00:17:27;52.13;45.89;57.82;;
74470;Laerm;62918;55.706;37.816;2023-02-01T00:17:57;47.91;44.51;53.58;;
74470;Laerm;62918;55.706;37.816;2023-02-01T00:18:28;53.20;45.16;59.38;;
74470;Laerm;62918;55.706;37.816;2023-02-01T00:19:00;54.46;50.76;58.59;;
74470;Laerm;62918;55.706;37.816;2023-02-01T00:19:31;59.18;50.33;71.01;;
74470;Laerm;62918;55.706;37.816;2023-02-01T00:20:02;67.88;57.81;78.76;;
74470;Laerm;62918;55.706;37.816;2023-02-01T00:20:33;53.94;45.64;60.22;;
74470;Laerm;62918;55.706;37.816;2023-02-01T00:21:04;48.96;45.16;53.04;;
74470;Laerm;62918;55.706;37.816;2023-02-01T00:21:35;55.43;49.63;61.67;;
74470;Laerm;62918;55.706;37.816;2023-02-01T00:22:05;61.38;57.25;65.38;;
74470;Laerm;62918;55.706;37.816;2023-02-01T00:22:36;55.50;47.50;62.65;;
74470;Laerm;62918;55.706;37.816;2023-02-01T00:23:07;55.04;50.05;59.81;;
74470;Laerm;62918;55.706;37.816;2023-02-01T00:23:41;51.19;43.67;58.45;;
74470;Laerm;62918;55.706;37.816;2023-02-01T00:24:12;50.52;44.98;58.29;;
74470;Laerm;62918;55.706;37.816;2023-02-01T00:24:42;60.48;46.72;68.94;;
74470;Laerm;62918;55.706;37.816;2023-02-01T00:25:13;51.04;44.10;57.32;;
74470;Laerm;62918;55.706;37.816;2023-02-01T00:25:44;50.86;44.26;57.10;;
74470;Laerm;62918;55.706;37.816;2023-02-01T00:26:35;51.45;44.94;57.77;;
74470;Laerm;62918;55.706;37.816;2023-02-01T00:27:06;58.82;48.51;64.66;;
74470;Laerm;62918;55.706;37.816;2023-02-01T00:27:37;47.01;43.08;50.83;;
74470;Laerm;62918;55.706;37.816;2023-02-01T00:28:07;51.56;45.12;61.33;;
74470;Laerm;62918;55.706;37.816;2023-02-01T00:28:38;49.59;44.08;58.34;;
74470;Laerm;62918;55.706;37.816;2023-02-01T00:29:18;51.73;43.98;59.04;;
74470;Laerm;62918;55.706;37.816;2023-02-01T00:29:49;54.07;44.27;60.79;;
74470;Laerm;62918;55.706;37.816;2023-02-01T00:30:19;49.80;45.34;54.87;;
74470;Laerm;62918;55.706;37.816;2023-02-01T00:31:01;55.20;44.71;64.83;;
74470;Laerm;62918;55.706;37.816;2023-02-01T00:31:32;53.29;46.18;60.88;;
74470;Laerm;62918;55.706;37.816;2023-02-01T00:32:03;52.49;45.35;60.88;;
74470;Laerm;62918;55.706;37.816;2023-02-01T00:32:33;59.90;51.87;64.63;;
74470;Laerm;62918;55.706;37.816;2023-02-01T00:33:04;46.63;43.65;52.77;;
74470;Laerm;62918;55.706;37.816;2023-02-01T00:33:34;47.95;44.12;51.58;;
74470;Laerm;62918;55.706;37.816;2023-02-01T00:34:05;52.38;43.81;59.17;;
74470;Laerm;62918;55.706;37.816;2023-02-01T00:34:36;46.81;43.66;52.58;;
74470;Laerm;62918;55.706;37.816;2023-02-01T00:35:07;47.08;43.90;50.66;;
74470;Laerm;62918;55.706;37.816;2023-02-01T00:35:38;52.81;45.12;64.41;;
74470;Laerm;62918;55.706;37.816;2023-02-01T00:36:09;52.25;45.67;63.90;;
74470;Laerm;62918;55.706;37.816;2023-02-01T00:36:40;59.77;48.75;69.58;;
74470;Laerm;62918;55.706;37.816;2023-02-01T00:37:11;54.84;46.72;64.72;;
74470;Laerm;62918;55.706;37.816;2023-02-01T00:37:41;55.38;45.09;64.06;;
74470;Laerm;62918;55.706;37.816;2023-02-01T00:38:12;48.84;45.41;53.09;;
74470;Laerm;62918;55.706;37.816;2023-02-01T00:38:43;52.17;46.08;56.95;;
74470;Laerm;62918;55.706;37.816;2023-02-01T00:39:14;52.53;47.73;57.60;;
74470;Laerm;62918;55.706;37.816;2023-02-01T00:39:45;52.60;46.25;60.45;;
74470;Laerm;62918;55.706;37.816;2023-02-01T00:40:15;60.59;51.15;68.91;;
74470;Laerm;62918;55.706;37.816;2023-02-01T00:40:46;53.54;46.39;62.55;;
74470;Laerm;62918;55.706;37.816;2023-02-01T00:41:18;55.86;45.18;64.79;;
74470;Laerm;62918;55.706;37.816;2023-02-01T00:41:49;45.97;43.53;53.31;;
74470;Laerm;62918;55.706;37.816;2023-02-01T00:42:20;57.79;43.46;64.06;;
74470;Laerm;62918;55.706;37.816;2023-02-01T00:42:50;53.82;46.12;61.09;;
74470;Laerm;62918;55.706;37.816;2023-02-01T00:43:21;54.28;45.03;61.35;;
74470;Laerm;62918;55.706;37.816;2023-02-01T00:43:52;53.62;43.78;59.35;;
74470;Laerm;62918;55.706;37.816;2023-02-01T00:44:22;55.92;45.67;63.63;;
74470;Laerm;62918;55.706;37.816;2023-02-01T00:44:53;60.78;52.00;65.59;;
74470;Laerm;62918;55.706;37.816;2023-02-01T00:45:23;55.89;46.45;68.92;;
74470;Laerm;62918;55.706;37.816;2023-02-01T00:45:54;55.56;45.32;61.35;;
74470;Laerm;62918;55.706;37.816;2023-02-01T00:46:25;53.13;45.55;57.96;;
74470;Laerm;62918;55.706;37.816;2023-02-01T00:46:55;48.52;43.47;56.60;;
74470;Laerm;62918;55.706;37.816;2023-02-01T00:47:26;47.72;43.48;61.11;;
74470;Laerm;62918;55.706;37.816;2023-02-01T00:47:56;46.93;43.76;57.25;;
74470;Laerm;62918;55.706;37.816;2023-02-01T00:48:27;55.76;44.55;63.36;;
74470;Laerm;62918;55.706;37.816;2023-02-01T00:48:58;58.16;50.17;64.92;;
74470;Laerm;62918;55.706;37.816;2023-02-01T00:49:28;60.23;45.04;67.59;;
74470;Laerm;62918;55.706;37.816;2023-02-01T00:49:59;53.40;45.35;65.08;;
74470;Laerm;62918;55.706;37.816;2023-02-01T00:50:29;58.40;46.55;65.02;;
74470;Laerm;62918;55.706;37.816;2023-02-01T00:51:06;46.20;43.36;49.38;;
74470;Laerm;62918;55.706;37.816;2023-02-01T00:51:37;46.05;42.98;49.17;;
74470;Laerm;62918;55.706;37.816;2023-02-01T00:52:07;46.82;43.48;50.47;;
74470;Laerm;62918;55.706;37.816;2023-02-01T00:52:38;46.69;43.83;49.98;;
74470;Laerm;62918;55.706;37.816;2023-02-01T00:53:09;50.55;44.23;61.97;;
74470;Laerm;62918;55.706;37.816;2023-02-01T00:53:40;55.69;46.15;60.02;;
74470;Laerm;62918;55.706;37.816;2023-02-01T00:54:11;53.60;44.62;61.53;;
74470;Laerm;62918;55.706;37.816;2023-02-01T00:54:41;54.45;45.02;62.07;;
74470;Laerm;62918;55.706;37.816;2023-02-01T00:55:12;50.96;43.97;59.49;;
74470;Laerm;62918;55.706;37.816;2023-02-01T00:55:48;59.99;43.11;67.34;;
74470;Laerm;62918;55.706;37.816;2023-02-01T00:56:18;47.58;43.56;52.60;;
74470;Laerm;62918;55.706;37.816;2023-02-01T00:56:49;49.05;43.83;55.86;;
74470;Laerm;62918;55.706;37.816;2023-02-01T00:57:20;48.02;44.01;54.12;;
74470;Laerm;62918;55.706;37.816;2023-02-01T00:57:50;50.20;43.61;55.15;;
74470;Laerm;62918;55.706;37.816;2023-02-01T00:58:21;47.05;44.53;50.96;;
74470;Laerm;62918;55.706;37.816;2023-02-01T00:58:54;53.33;44.31;61.38;;
74470;Laerm;62918;55.706;37.816;2023-02-01T00:59:24;48.32;45.77;56.08;;
74470;Laerm;62918;55.706;37.816;2023-02-01T00:59:55;52.38;45.94;61.80;;
74470;Laerm;62918;55.706;37.816;2023-02-01T01:00:26;53.52;46.34;59.57;;
74470;Laerm;62918;55.706;37.816;2023-02-01T01:01:20;57.15;47.92;64.76;;
74470;Laerm;62918;55.706;37.816;2023-02-01T01:01:51;53.05;46.13;58.04;;
74470;Laerm;62918;55.706;37.816;2023-02-01T01:02:22;60.13;46.89;66.53;;
74470;Laerm;62918;55.706;37.816;2023-02-01T01:02:52;59.54;48.22;66.84;;
74470;Laerm;62918;55.706;37.816;2023-02-01T01:03:23;47.00;44.16;50.45;;
74470;Laerm;62918;55.706;37.816;2023-02-01T01:03:56;52.85;46.28;60.98;;
74470;Laerm;62918;55.706;37.816;2023-02-01T01:04:27;53.30;43.86;61.32;;
74470;Laerm;62918;55.706;37.816;2023-02-01T01:04:57;53.45;45.44;60.70;;
74470;Laerm;62918;55.706;37.816;2023-02-01T01:05:28;54.09;44.48;59.55;;
74470;Laerm;62918;55.706;37.816;2023-02-01T01:06:13;46.34;42.95;51.15;;
74470;Laerm;62918;55.706;37.816;2023-02-01T01:06:43;47.01;43.67;50.35;;
74470;Laerm;62918;55.706;37.816;2023-02-01T01:07:14;46.93;44.04;50.09;;
74470;Laerm;62918;55.706;37.816;2023-02-01T01:07:44;56.35;45.36;62.55;;
74470;Laerm;62918;55.706;37.816;2023-02-01T01:08:16;58.02;50.97;65.30;;
74470;Laerm;62918;55.706;37.816;2023-02-01T01:08:47;49.96;42.77;56.73;;
74470;Laerm;62918;55.706;37.816;2023-02-01T01:09:18;50.66;44.51;57.04;;
74470;Laerm;62918;55.706;37.816;2023-02-01T01:09:48;61.57;52.23;67.42;;
74470;Laerm;62918;55.706;37.816;2023-02-01T01:10:19;52.29;44.76;59.37;;
74470;Laerm;62918;55.706;37.816;2023-02-01T01:10:50;47.96;44.64;54.69;;
74470;Laerm;62918;55.706;37.816;2023-02-01T01:11:31;54.67;46.67;61.51;;
74470;Laerm;62918;55.706;37.816;2023-02-01T01:12:02;56.94;47.62;64.99;;
74470;Laerm;62918;55.706;37.816;2023-02-01T01:12:33;53.05;44.97;61.55;;
74470;Laerm;62918;55.706;37.816;2023-02-01T01:13:04;52.74;44.15;61.15;;
74470;Laerm;62918;55.706;37.816;2023-02-01T01:13:35;59.59;50.87;64.53;;
74470;Laerm;62918;55.706;37.816;2023-02-01T01:14:06;59.86;50.61;65.73;;
74470;Laerm;62918;55.706;37.816;2023-02-01T01:14:37;58.37;47.12;63.33;;
74470;Laerm;62918;55.706;37.816;2023-02-01T01:15:08;62.41;45.87;72.12;;
74470;Laerm;62918;55.706;37.816;2023-02-01T01:15:39;56.01;45.42;68.25;;
74470;Laerm;62918;55.706;37.816;2023-02-01T01:16:10;48.70;45.25;53.09;;
74470;Laerm;62918;55.706;37.816;2023-02-01T01:16:41;48.45;45.47;52.47;;
74470;Laerm;62918;55.706;37.816;2023-02-01T01:17:11;53.36;46.62;58.43;;
74470;Laerm;62918;55.706;37.816;2023-02-01T01:17:42;59.36;48.13;66.40;;
74470;Laerm;62918;55.706;37.816;2023-02-01T01:18:12;57.00;47.94;64.65;;
74470;Laerm;62918;55.706;37.816;2023-02-01T01:18:43;57.44;49.06;63.09;;
74470;Laerm;62918;55.706;37.816;2023-02-01T01:19:14;51.10;44.36;57.47;;
74470;Laerm;62918;55.706;37.816;2023-02-01T01:19:45;48.70;45.29;53.56;;
74470;Laerm;62918;55.706;37.816;2023-02-01T01:20:15;48.86;45.32;53.17;;
74470;Laerm;62918;55.706;37.816;2023-02-01T01:20:47;54.34;47.05;63.88;;
74470;Laerm;62918;55.706;37.816;2023-02-01T01:21:18;48.59;45.74;50.88;;
74470;Laerm;62918;55.706;37.816;2023-02-01T01:21:49;54.22;47.10;61.12;;
74470;Laerm;62918;55.706;37.816;2023-02-01T01:22:19;54.38;46.97;62.24;;
74470;Laerm;62918;55.706;37.816;2023-02-01T01:22:50;56.33;51.17;61.96;;
74470;Laerm;62918;55.706;37.816;2023-02-01T01:23:20;59.58;50.82;63.73;;
74470;Laerm;62918;55.706;37.816;2023-02-01T01:23:51;58.92;47.78;66.42;;
74470;Laerm;62918;55.706;37.816;2023-02-01T01:24:22;53.40;46.48;59.86;;
74470;Laerm;62918;55.706;37.816;2023-02-01T01:24:52;55.74;46.53;61.85;;
74470;Laerm;62918;55.706;37.816;2023-02-01T01:25:23;50.76;45.47;61.02;;
74470;Laerm;62918;55.706;37.816;2023-02-01T01:25:53;54.45;45.16;64.96;;
74470;Laerm;62918;55.706;37.816;2023-02-01T01:26:26;58.95;47.21;66.95;;
74470;Laerm;62918;55.706;37.816;2023-02-01T01:26:57;48.74;45.67;55.40;;
74470;Laerm;62918;55.706;37.816;2023-02-01T01:27:28;51.67;45.89;60.01;;
74470;Laerm;62918;55.706;37.816;2023-02-01T01:27:58;49.94;45.06;58.33;;
74470;Laerm;62918;55.706;37.816;2023-02-01T01:28:29;60.32;52.06;68.67;;
74470;Laerm;62918;55.706;37.816;2023-02-01T01:28:59;51.95;46.50;61.80;;
74470;Laerm;62918;55.706;37.816;2023-02-01T01:29:30;58.36;53.26;63.33;;
74470;Laerm;62918;55.706;37.816;2023-02-01T01:30:00;54.35;45.53;64.67;;
74470;Laerm;62918;55.706;37.816;2023-02-01T01:30:31;58.02;48.82;66.06;;
74470;Laerm;62918;55.706;37.816;2023-02-01T01:31:03;55.59;46.74;61.45;;
74470;Laerm;62918;55.706;37.816;2023-02-01T01:31:33;56.48;46.66;61.04;;
74470;Laerm;62918;55.706;37.816;2023-02-01T01:32:04;61.26;54.52;66.38;;
74470;Laerm;62918;55.706;37.816;2023-02-01T01:32:34;56.78;46.70;62.17;;
74470;Laerm;62918;55.706;37.816;2023-02-01T01:33:05;52.27;45.65;58.94;;
74470;Laerm;62918;55.706;37.816;2023-02-01T01:33:36;51.62;46.45;57.42;;
74470;Laerm;62918;55.706;37.816;2023-02-01T01:34:08;54.07;46.58;60.82;;
74470;Laerm;62918;55.706;37.816;2023-02-01T01:34:38;52.72;46.40;59.10;;
74470;Laerm;62918;55.706;37.816;2023-02-01T01:35:10;49.14;45.30;59.70;;
74470;Laerm;62918;55.706;37.816;2023-02-01T01:35:41;57.74;46.88;65.11;;
74470;Laerm;62918;55.706;37.816;2023-02-01T01:36:12;52.32;46.23;58.70;;
74470;Laerm;62918;55.706;37.816;2023-02-01T01:36:43;50.34;45.66;58.30;;
74470;Laerm;62918;55.706;37.816;2023-02-01T01:37:13;53.29;46.04;60.08;;
74470;Laerm;62918;55.706;37.816;2023-02-01T01:37:44;53.25;45.37;61.92;;
74470;Laerm;62918;55.706;37.816;2023-02-01T01:38:14;51.75;46.44;56.17;;
74470;Laerm;62918;55.706;37.816;2023-02-01T01:38:45;54.36;47.59;63.55;;
74470;Laerm;62918;55.706;37.816;2023-02-01T01:39:16;53.54;45.72;61.06;;
74470;Laerm;62918;55.706;37.816;2023-02-01T01:39:46;49.76;45.68;57.04;;
74470;Laerm;62918;55.706;37.816;2023-02-01T01:40:17;51.77;44.23;60.45;;
74470;Laerm;62918;55.706;37.816;2023-02-01T01:40:47;52.25;46.05;60.61;;
74470;Laerm;62918;55.706;37.816;2023-02-01T01:41:22;57.12;45.81;63.10;;
74470;Laerm;62918;55.706;37.816;2023-02-01T01:41:53;56.84;47.48;63.53;;
74470;Laerm;62918;55.706;37.816;2023-02-01T01:42:24;62.53;51.61;69.45;;
74470;Laerm;62918;55.706;37.816;2023-02-01T01:42:55;51.46;46.12;58.92;;
74470;Laerm;62918;55.706;37.816;2023-02-01T01:45:44;56.60;47.32;62.96;;
74470;Laerm;62918;55.706;37.816;2023-02-01T01:45:44;58.53;48.61;65.53;;
74470;Laerm;62918;55.706;37.816;2023-02-01T01:46:19;60.76;46.27;66.81;;
74470;Laerm;62918;55.706;37.816;2023-02-01T01:46:50;48.43;45.73;51.17;;
74470;Laerm;62918;55.706;37.816;2023-02-01T01:47:21;47.89;45.09;52.95;;
74470;Laerm;62918;55.706;37.816;2023-02-01T01:48:20;50.65;44.85;58.33;;
74470;Laerm;62918;55.706;37.816;2023-02-01T01:49:31;59.48;47.77;66.04;;
74470;Laerm;62918;55.706;37.816;2023-02-01T01:50:04;58.00;47.82;64.71;;
74470;Laerm;62918;55.706;37.816;2023-02-01T01:50:40;47.68;44.49;50.93;;
74470;Laerm;62918;55.706;37.816;2023-02-01T01:51:14;47.69;44.73;51.07;;
74470;Laerm;62918;55.706;37.816;2023-02-01T01:51:50;48.35;45.71;51.33;;
74470;Laerm;62918;55.706;37.816;2023-02-01T01:52:22;47.83;44.98;51.72;;
74470;Laerm;62918;55.706;37.816;2023-02-01T01:52:55;49.09;44.87;55.89;;
74470;Laerm;62918;55.706;37.816;2023-02-01T01:53:31;53.66;47.12;57.90;;
74470;Laerm;62918;55.706;37.816;2023-02-01T01:54:19;54.79;47.51;61.59;;
74470;Laerm;62918;55.706;37.816;2023-02-01T01:54:53;58.50;51.40;64.18;;
74470;Laerm;62918;55.706;37.816;2023-02-01T01:55:25;54.94;48.81;67.71;;
74470;Laerm;62918;55.706;37.816;2023-02-01T01:55:57;53.39;47.74;59.39;;
74470;Laerm;62918;55.706;37.816;2023-02-01T01:56:29;55.21;49.66;60.98;;
74470;Laerm;62918;55.706;37.816;2023-02-01T01:57:06;58.82;50.79;63.22;;
74470;Laerm;62918;55.706;37.816;2023-02-01T01:57:42;58.59;50.96;65.85;;
74470;Laerm;62918;55.706;37.816;2023-02-01T01:58:24;58.04;50.86;62.06;;
74470;Laerm;62918;55.706;37.816;2023-02-01T01:58:55;53.17;46.60;59.28;;
74470;Laerm;62918;55.706;37.816;2023-02-01T01:59:26;53.52;46.61;59.24;;
74470;Laerm;62918;55.706;37.816;2023-02-01T02:00:10;53.90;43.83;66.76;;
74470;Laerm;62918;55.706;37.816;2023-02-01T02:00:42;54.51;45.27;64.93;;
74470;Laerm;62918;55.706;37.816;2023-02-01T02:01:13;58.63;47.54;65.38;;
74470;Laerm;62918;55.706;37.816;2023-02-01T02:01:43;47.55;44.46;50.03;;
74470;Laerm;62918;55.706;37.816;2023-02-01T02:02:15;47.18;44.14;54.78;;
74470;Laerm;62918;55.706;37.816;2023-02-01T02:02:49;52.40;44.16;59.39;;
74470;Laerm;62918;55.706;37.816;2023-02-01T02:03:39;53.58;43.44;62.06;;
74470;Laerm;62918;55.706;37.816;2023-02-01T02:04:12;60.50;53.91;67.76;;
74470;Laerm;62918;55.706;37.816;2023-02-01T02:04:43;58.28;51.05;64.91;;
74470;Laerm;62918;55.706;37.816;2023-02-01T02:05:15;62.11;52.61;70.21;;
74470;Laerm;62918;55.706;37.816;2023-02-01T02:05:48;60.58;56.30;65.26;;
74470;Laerm;62918;55.706;37.816;2023-02-01T02:06:32;57.24;47.40;64.55;;
74470;Laerm;62918;55.706;37.816;2023-02-01T02:07:08;58.14;51.17;63.92;;
74470;Laerm;62918;55.706;37.816;2023-02-01T02:07:44;54.57;49.39;61.63;;
74470;Laerm;62918;55.706;37.816;2023-02-01T02:08:17;65.54;53.37;72.14;;
74470;Laerm;62918;55.706;37.816;2023-02-01T02:08:50;62.64;53.81;68.55;;
74470;Laerm;62918;55.706;37.816;2023-02-01T02:09:21;58.72;51.89;63.86;;
74470;Laerm;62918;55.706;37.816;2023-02-01T02:09:52;60.38;53.97;67.68;;
74470;Laerm;62918;55.706;37.816;2023-02-01T02:10:23;61.71;57.49;66.57;;
74470;Laerm;62918;55.706;37.816;2023-02-01T02:11:16;58.59;50.37;64.85;;
74470;Laerm;62918;55.706;37.816;2023-02-01T02:11:47;58.85;47.60;65.12;;
74470;Laerm;62918;55.706;37.816;2023-02-01T02:12:18;58.38;46.44;64.32;;
74470;Laerm;62918;55.706;37.816;2023-02-01T02:12:49;50.72;45.51;54.77;;
74470;Laerm;62918;55.706;37.816;2023-02-01T02:13:19;54.78;46.45;59.29;;
74470;Laerm;62918;55.706;37.816;2023-02-01T02:13:52;60.26;55.53;64.49;;
74470;Laerm;62918;55.706;37.816;2023-02-01T02:14:26;58.43;51.15;65.45;;
74470;Laerm;62918;55.706;37.816;2023-02-01T02:14:57;54.69;45.10;63.32;;
74470;Laerm;62918;55.706;37.816;2023-02-01T02:15:27;66.05;46.91;73.44;;
74470;Laerm;62918;55.706;37.816;2023-02-01T02:16:18;60.17;55.00;66.64;;
74470;Laerm;62918;55.706;37.816;2023-02-01T02:18:19;59.85;48.35;66.99;;
74470;Laerm;62918;55.706;37.816;2023-02-01T02:22:45;57.64;47.62;64.31;;
74470;Laerm;62918;55.706;37.816;2023-02-01T02:28:38;61.83;51.73;68.81;;
74470;Laerm;62918;55.706;37.816;2023-02-01T02:30:26;59.91;50.02;65.98;;
74470;Laerm;62918;55.706;37.816;2023-02-01T02:34:20;49.43;45.86;57.67;;
74470;Laerm;62918;55.706;37.816;2023-02-01T02:34:57;60.42;47.31;69.86;;
74470;Laerm;62918;55.706;37.816;2023-02-01T02:37:59;54.66;47.21;60.42;;
74470;Laerm;62918;55.706;37.816;2023-02-01T02:43:58;59.97;53.55;74.63;;
74470;Laerm;62918;55.706;37.816;2023-02-01T02:45:20;63.71;55.30;70.26;;
74470;Laerm;62918;55.706;37.816;2023-02-01T02:46:23;63.18;53.20;72.17;;
74470;Laerm;62918;55.706;37.816;2023-02-01T02:47:22;59.13;51.85;66.72;;
74470;Laerm;62918;55.706;37.816;2023-02-01T02:47:59;59.03;52.45;63.77;;
74470;Laerm;62918;55.706;37.816;2023-02-01T02:49:23;61.07;50.37;66.95;;
74470;Laerm;62918;55.706;37.816;2023-02-01T02:50:05;62.23;55.55;69.06;;
74470;Laerm;62918;55.706;37.816;2023-02-01T02:51:05;63.13;50.45;71.77;;
74470;Laerm;62918;55.706;37.816;2023-02-01T02:52:12;62.66;53.19;69.70;;
74470;Laerm;62918;55.706;37.816;2023-02-01T02:53:39;58.35;50.26;63.58;;
74470;Laerm;62918;55.706;37.816;2023-02-01T02:54:36;59.53;52.38;65.40;;
74470;Laerm;62918;55.706;37.816;2023-02-01T02:55:17;63.96;58.52;69.50;;
74470;Laerm;62918;55.706;37.816;2023-02-01T02:55:50;63.89;55.61;69.96;;
74470;Laerm;62918;55.706;37.816;2023-02-01T02:56:23;63.24;56.60;68.04;;
74470;Laerm;62918;55.706;37.816;2023-02-01T02:57:43;63.43;53.99;70.67;;
74470;Laerm;62918;55.706;37.816;2023-02-01T02:58:32;63.18;55.45;69.26;;
74470;Laerm;62918;55.706;37.816;2023-02-01T02:59:24;62.81;56.92;68.58;;
74470;Laerm;62918;55.706;37.816;2023-02-01T03:00:17;61.11;54.53;68.92;;
74470;Laerm;62918;55.706;37.816;2023-02-01T03:01:07;57.73;53.05;63.81;;
74470;Laerm;62918;55.706;37.816;2023-02-01T03:01:56;54.32;49.37;65.09;;
74470;Laerm;62918;55.706;37.816;2023-02-01T03:02:46;61.49;50.67;77.99;;
74470;Laerm;62918;55.706;37.816;2023-02-01T03:03:38;57.14;48.80;69.15;;
74470;Laerm;62918;55.706;37.816;2023-02-01T03:04:27;63.32;49.33;70.47;;
74470;Laerm;62918;55.706;37.816;2023-02-01T03:04:58;59.34;54.41;63.09;;
74470;Laerm;62918;55.706;37.816;2023-02-01T03:05:36;61.40;55.20;66.98;;
74470;Laerm;62918;55.706;37.816;2023-02-01T03:06:15;58.92;51.37;65.90;;
74470;Laerm;62918;55.706;37.816;2023-02-01T03:06:48;61.30;56.01;65.37;;
74470;Laerm;62918;55.706;37.816;2023-02-01T03:08:17;68.13;62.60;73.71;;
74470;Laerm;62918;55.706;37.816;2023-02-01T03:08:48;69.34;62.37;74.46;;
74470;Laerm;62918;55.706;37.816;2023-02-01T03:09:39;63.18;56.54;71.09;;
74470;Laerm;62918;55.706;37.816;2023-02-01T03:10:40;65.65;59.66;73.02;;
74470;Laerm;62918;55.706;37.816;2023-02-01T03:11:14;64.67;60.58;68.98;;
74470;Laerm;62918;55.706;37.816;2023-02-01T03:11:47;65.11;60.71;69.76;;
74470;Laerm;62918;55.706;37.816;2023-02-01T03:12:43;62.81;57.69;66.96;;
74470;Laerm;62918;55.706;37.816;2023-02-01T03:13:28;61.96;56.49;67.80;;
74470;Laerm;62918;55.706;37.816;2023-02-01T03:14:02;64.01;57.88;69.65;;
74470;Laerm;62918;55.706;37.816;2023-02-01T03:14:41;61.15;54.31;65.63;;
74470;Laerm;62918;55.706;37.816;2023-02-01T03:15:14;59.16;52.66;64.55;;
74470;Laerm;62918;55.706;37.816;2023-02-01T03:15:57;61.86;54.57;66.70;;
74470;Laerm;62918;55.706;37.816;2023-02-01T03:16:35;59.35;55.55;68.31;;
74470;Laerm;62918;55.706;37.816;2023-02-01T03:17:20;59.74;56.10;63.85;;
74470;Laerm;62918;55.706;37.816;2023-02-01T03:17:55;58.67;55.26;62.27;;
74470;Laerm;62918;55.706;37.816;2023-02-01T03:18:34;66.11;57.67;70.52;;
74470;Laerm;62918;55.706;37.816;2023-02-01T03:19:29;68.72;61.32;74.73;;
74470;Laerm;62918;55.706;37.816;2023-02-01T03:20:03;62.19;55.25;67.11;;
74470;Laerm;62918;55.706;37.816;2023-02-01T03:20:34;60.65;57.15;64.79;;
74470;Laerm;62918;55.706;37.816;2023-02-01T03:21:19;59.84;55.17;63.74;;
74470;Laerm;62918;55.706;37.816;2023-02-01T03:22:06;64.56;56.04;72.94;;
74470;Laerm;62918;55.706;37.816;2023-02-01T03:22:48;63.92;57.53;72.72;;
74470;Laerm;62918;55.706;37.816;2023-02-01T03:23:27;64.18;57.68;77.85;;
74470;Laerm;62918;55.706;37.816;2023-02-01T03:24:15;64.29;58.36;70.32;;
74470;Laerm;62918;55.706;37.816;2023-02-01T03:25:25;61.30;55.10;66.10;;
74470;Laerm;62918;55.706;37.816;2023-02-01T03:25:58;62.47;56.94;66.64;;
74470;Laerm;62918;55.706;37.816;2023-02-01T03:26:30;65.94;56.91;71.67;;
74470;Laerm;62918;55.706;37.816;2023-02-01T03:27:06;66.29;60.75;70.91;;
74470;Laerm;62918;55.706;37.816;2023-02-01T03:27:59;67.68;62.03;71.92;;
74470;Laerm;62918;55.706;37.816;2023-02-01T03:28:34;65.54;59.17;72.36;;
74470;Laerm;62918;55.706;37.816;2023-02-01T03:29:14;65.63;59.39;69.41;;
74470;Laerm;62918;55.706;37.816;2023-02-01T03:30:07;60.90;52.98;67.06;;
74470;Laerm;62918;55.706;37.816;2023-02-01T03:30:42;59.88;52.61;65.05;;
74470;Laerm;62918;55.706;37.816;2023-02-01T03:31:13;64.81;57.69;68.36;;
74470;Laerm;62918;55.706;37.816;2023-02-01T03:31:48;65.64;58.55;70.62;;
74470;Laerm;62918;55.706;37.816;2023-02-01T03:32:22;66.22;59.20;71.78;;
74470;Laerm;62918;55.706;37.816;2023-02-01T03:32:58;61.71;52.80;67.71;;
74470;Laerm;62918;55.706;37.816;2023-02-01T03:33:31;62.57;54.79;67.11;;
74470;Laerm;62918;55.706;37.816;2023-02-01T03:34:02;66.20;59.94;70.67;;
74470;Laerm;62918;55.706;37.816;2023-02-01T03:34:33;64.24;59.67;68.76;;
74470;Laerm;62918;55.706;37.816;2023-02-01T03:35:04;68.46;57.43;76.44;;
74470;Laerm;62918;55.706;37.816;2023-02-01T03:37:24;62.74;52.28;69.34;;
74470;Laerm;62918;55.706;37.816;2023-02-01T03:38:02;65.03;57.98;70.86;;
74470;Laerm;62918;55.706;37.816;2023-02-01T03:39:47;65.04;54.55;73.24;;
74470;Laerm;62918;55.706;37.816;2023-02-01T03:40:21;64.77;57.55;67.65;;
74470;Laerm;62918;55.706;37.816;2023-02-01T03:42:13;65.64;58.68;70.07;;
74470;Laerm;62918;55.706;37.816;2023-02-01T03:42:49;62.10;55.81;67.12;;